createdAt,value
2023-04-15T00:01:45.874Z,6.10
2023-04-15T00:04:14.100Z,6.10
2023-04-15T00:06:42.161Z,6.10
2023-04-15T00:09:11.480Z,6.10
2023-04-15T00:11:39.436Z,6.00
2023-04-15T00:14:07.439Z,5.90
2023-04-15T00:16:35.657Z,5.90
2023-04-15T00:19:03.699Z,5.90
2023-04-15T00:21:32.416Z,5.90
2023-04-15T00:24:00.411Z,5.80
2023-04-15T00:26:29.721Z,5.80
2023-04-15T00:28:58.220Z,5.80
2023-04-15T00:31:26.502Z,5.70
2023-04-15T00:33:55.749Z,5.60
2023-04-15T00:36:24.430Z,5.60
2023-04-15T00:38:52.449Z,5.50
2023-04-15T00:41:23.018Z,5.50
2023-04-15T00:43:52.661Z,5.50
2023-04-15T00:46:22.242Z,5.50
2023-04-15T00:48:51.275Z,5.50
2023-04-15T00:51:19.331Z,5.50
2023-04-15T00:53:47.335Z,5.50
2023-04-15T00:56:15.416Z,5.50
2023-04-15T00:58:43.492Z,5.50
2023-04-15T01:01:14.758Z,5.40
2023-04-15T01:03:42.938Z,5.40
2023-04-15T01:06:11.494Z,5.40
2023-04-15T01:08:39.540Z,5.40
2023-04-15T01:11:08.428Z,5.40
2023-04-15T01:13:37.919Z,5.40
2023-04-15T01:16:06.781Z,5.30
2023-04-15T01:18:37.578Z,5.30
2023-04-15T01:21:07.755Z,5.30
2023-04-15T01:23:38.720Z,5.30
2023-04-15T01:26:09.299Z,5.50
2023-04-15T01:28:38.526Z,5.60
2023-04-15T01:31:08.457Z,5.70
2023-04-15T01:33:39.003Z,5.70
2023-04-15T01:36:09.937Z,5.70
2023-04-15T01:38:38.579Z,5.80
2023-04-15T01:41:08.569Z,5.70
2023-04-15T01:43:37.161Z,5.70
2023-04-15T01:46:05.316Z,5.70
2023-04-15T01:48:33.918Z,5.70
2023-04-15T01:51:02.129Z,5.70
2023-04-15T01:53:30.083Z,5.60
2023-04-15T01:55:58.030Z,5.40
2023-04-15T01:58:27.424Z,5.50
2023-04-15T02:00:55.774Z,5.40
2023-04-15T02:03:23.860Z,5.30
2023-04-15T02:05:53.904Z,5.20
2023-04-15T02:08:22.511Z,5.20
2023-04-15T02:10:50.828Z,5.20
2023-04-15T02:13:19.293Z,5.20
2023-04-15T02:15:52.431Z,5.20
2023-04-15T02:18:21.400Z,5.20
2023-04-15T02:20:49.393Z,5.10
2023-04-15T02:23:17.401Z,5.00
2023-04-15T02:25:53.363Z,5.10
2023-04-15T02:28:22.286Z,5.10
2023-04-15T02:30:53.331Z,5.10
2023-04-15T02:33:22.758Z,5.10
2023-04-15T02:35:50.862Z,5.00
2023-04-15T02:38:18.846Z,4.90
2023-04-15T02:40:49.551Z,4.90
2023-04-15T02:43:18.224Z,4.80
2023-04-15T02:45:47.064Z,4.80
2023-04-15T02:48:18.936Z,4.90
2023-04-15T02:50:47.827Z,4.80
2023-04-15T02:53:17.460Z,4.70
2023-04-15T02:55:45.410Z,4.70
2023-04-15T02:58:13.628Z,4.60
2023-04-15T03:00:41.834Z,4.50
2023-04-15T03:03:10.804Z,4.60
2023-04-15T03:05:40.982Z,4.50
2023-04-15T03:08:09.245Z,4.60
2023-04-15T03:10:37.224Z,4.50
2023-04-15T03:13:05.159Z,4.50
2023-04-15T03:15:34.100Z,4.60
2023-04-15T03:18:02.728Z,4.50
2023-04-15T03:20:30.819Z,4.60
2023-04-15T03:23:00.149Z,4.50
2023-04-15T03:25:28.154Z,4.50
2023-04-15T03:27:56.127Z,4.60
2023-04-15T03:30:24.253Z,4.60
2023-04-15T03:32:52.464Z,4.60
2023-04-15T03:35:21.253Z,4.60
2023-04-15T03:37:49.258Z,4.60
2023-04-15T03:40:18.600Z,4.50
2023-04-15T03:42:46.558Z,4.40
2023-04-15T03:45:14.596Z,4.50
2023-04-15T03:47:42.711Z,4.50
2023-04-15T03:50:11.548Z,4.50
2023-04-15T03:52:39.669Z,4.50
2023-04-15T03:55:08.407Z,4.60
2023-04-15T03:57:39.024Z,4.60
2023-04-15T04:00:09.263Z,4.60
2023-04-15T04:02:39.931Z,4.60
2023-04-15T04:05:08.472Z,4.60
2023-04-15T04:07:36.525Z,4.60
2023-04-15T04:10:04.895Z,4.50
2023-04-15T04:12:32.864Z,4.60
2023-04-15T04:15:02.293Z,4.60
2023-04-15T04:17:30.272Z,4.50
2023-04-15T04:19:58.271Z,4.50
2023-04-15T04:22:26.489Z,4.60
2023-04-15T04:24:54.410Z,4.60
2023-04-15T04:27:22.357Z,4.60
2023-04-15T04:29:50.298Z,4.70
2023-04-15T04:32:19.664Z,4.80
2023-04-15T04:34:48.116Z,4.80
2023-04-15T04:37:16.359Z,4.80
2023-04-15T04:39:44.304Z,4.80
2023-04-15T04:42:12.318Z,4.70
2023-04-15T04:44:40.295Z,4.70
2023-04-15T04:47:08.532Z,4.70
2023-04-15T04:49:37.874Z,4.70
2023-04-15T04:52:05.973Z,4.90
2023-04-15T04:54:34.003Z,4.90
2023-04-15T04:57:02.250Z,4.90
2023-04-15T04:59:30.201Z,5.00
2023-04-15T05:01:58.192Z,5.00
2023-04-15T05:04:26.482Z,5.20
2023-04-15T05:06:55.749Z,5.20
2023-04-15T05:09:23.774Z,5.30
2023-04-15T05:11:51.707Z,5.30
2023-04-15T05:14:20.485Z,5.40
2023-04-15T05:16:49.104Z,5.60
2023-04-15T05:19:17.086Z,5.80
2023-04-15T05:21:45.228Z,6.10
2023-04-15T05:24:14.561Z,6.40
2023-04-15T05:26:42.963Z,6.50
2023-04-15T05:29:11.165Z,6.90
2023-04-15T05:31:39.521Z,7.10
2023-04-15T05:34:07.574Z,7.50
2023-04-15T05:36:35.568Z,7.70
2023-04-15T05:39:04.052Z,7.90
2023-04-15T05:41:33.451Z,8.40
2023-04-15T05:44:01.749Z,8.80
2023-04-15T05:46:30.888Z,9.20
2023-04-15T05:48:58.950Z,9.30
2023-04-15T05:51:27.217Z,9.30
2023-04-15T05:53:55.163Z,9.60
2023-04-15T05:56:23.106Z,9.70
2023-04-15T05:58:53.800Z,10.10
2023-04-15T06:01:22.232Z,10.40
2023-04-15T06:03:53.381Z,10.10
2023-04-15T06:06:21.534Z,9.80
2023-04-15T06:08:49.477Z,9.60
2023-04-15T06:11:17.482Z,9.50
2023-04-15T06:13:45.423Z,9.10
2023-04-15T06:16:14.797Z,9.20
2023-04-15T06:18:42.807Z,9.30
2023-04-15T06:21:11.555Z,9.40
2023-04-15T06:23:41.125Z,9.60
2023-04-15T06:26:09.415Z,9.70
2023-04-15T06:28:37.477Z,9.80
2023-04-15T06:31:05.605Z,9.90
2023-04-15T06:33:34.927Z,9.80
2023-04-15T06:36:02.877Z,9.90
2023-04-15T06:38:30.892Z,9.90
2023-04-15T06:40:58.948Z,10.00
2023-04-15T06:43:26.897Z,10.20
2023-04-15T06:45:54.895Z,10.30
2023-04-15T06:48:23.179Z,10.40
2023-04-15T06:50:53.982Z,10.60
2023-04-15T06:53:22.086Z,10.60
2023-04-15T06:55:50.071Z,10.60
2023-04-15T06:58:18.154Z,10.30
2023-04-15T07:00:46.236Z,10.40
2023-04-15T07:03:15.121Z,10.60
2023-04-15T07:05:43.378Z,11.00
2023-04-15T07:08:12.728Z,11.40
2023-04-15T07:10:40.728Z,11.80
2023-04-15T07:13:08.917Z,12.10
2023-04-15T07:15:37.023Z,12.30
2023-04-15T07:18:05.129Z,12.60
2023-04-15T07:20:33.102Z,12.60
2023-04-15T07:23:01.092Z,12.50
2023-04-15T07:25:30.383Z,12.90
2023-04-15T07:27:58.313Z,12.40
2023-04-15T07:30:26.348Z,12.20
2023-04-15T07:32:54.393Z,12.30
2023-04-15T07:35:22.454Z,12.20
2023-04-15T07:37:50.522Z,12.10
2023-04-15T07:40:18.677Z,11.90
2023-04-15T07:42:49.303Z,11.80
2023-04-15T07:45:17.420Z,11.90
2023-04-15T07:47:45.455Z,11.80
2023-04-15T07:50:13.422Z,11.90
2023-04-15T07:52:41.955Z,11.90
2023-04-15T07:55:10.800Z,12.10
2023-04-15T07:57:39.167Z,12.10
2023-04-15T08:00:09.882Z,12.50
2023-04-15T08:02:43.750Z,12.50
2023-04-15T08:05:11.969Z,12.60
2023-04-15T08:07:40.025Z,12.80
2023-04-15T08:10:09.063Z,12.70
2023-04-15T08:12:37.082Z,12.70
2023-04-15T08:15:05.674Z,12.60
2023-04-15T08:17:35.113Z,13.00
2023-04-15T08:20:04.399Z,13.60
2023-04-15T08:22:32.380Z,13.80
2023-04-15T08:25:00.336Z,14.10
2023-04-15T08:27:28.460Z,14.20
2023-04-15T08:29:56.452Z,14.10
2023-04-15T08:32:26.372Z,14.10
2023-04-15T08:34:55.849Z,14.00
2023-04-15T08:37:24.080Z,13.80
2023-04-15T08:39:55.137Z,13.50
2023-04-15T08:42:29.029Z,13.50
2023-04-15T08:44:57.437Z,13.10
2023-04-15T08:47:27.724Z,13.20
2023-04-15T08:49:59.245Z,13.20
2023-04-15T08:52:28.186Z,13.30
2023-04-15T08:54:58.988Z,13.70
2023-04-15T08:57:28.515Z,14.00
2023-04-15T08:59:57.590Z,14.10
2023-04-15T09:02:27.651Z,13.80
2023-04-15T09:04:57.566Z,13.30
2023-04-15T09:07:25.673Z,13.60
2023-04-15T09:09:53.630Z,13.90
2023-04-15T09:12:21.761Z,14.00
2023-04-15T09:14:50.089Z,14.00
2023-04-15T09:17:21.585Z,14.30
2023-04-15T09:19:49.766Z,14.40
2023-04-15T09:22:22.233Z,14.50
2023-04-15T09:24:50.600Z,14.70
2023-04-15T09:27:18.566Z,15.10
2023-04-15T09:29:50.758Z,15.50
2023-04-15T09:32:18.771Z,15.60
2023-04-15T09:34:46.809Z,15.60
2023-04-15T09:37:31.260Z,16.20
2023-04-15T09:40:01.598Z,16.20
2023-04-15T09:42:29.798Z,15.80
2023-04-15T09:45:08.810Z,15.80
2023-04-15T09:47:36.979Z,15.90
2023-04-15T09:50:05.382Z,15.60
2023-04-15T09:52:33.424Z,15.60
2023-04-15T09:55:02.734Z,15.50
2023-04-15T09:57:36.521Z,15.60
2023-04-15T10:00:06.449Z,15.90
2023-04-15T10:02:35.208Z,15.90
2023-04-15T10:05:03.932Z,16.00
2023-04-15T10:07:32.018Z,16.10
2023-04-15T10:10:03.643Z,15.70
2023-04-15T10:12:33.517Z,15.60
2023-04-15T10:15:05.888Z,15.80
2023-04-15T10:17:35.594Z,15.70
2023-04-15T10:20:05.081Z,15.40
2023-04-15T10:22:33.833Z,15.80
2023-04-15T10:25:04.621Z,15.60
2023-04-15T10:27:32.792Z,15.70
2023-04-15T10:30:02.993Z,15.40
2023-04-15T10:32:31.632Z,15.40
2023-04-15T10:35:00.170Z,15.40
2023-04-15T10:37:36.200Z,15.90
2023-04-15T10:40:27.201Z,15.70
2023-04-15T10:42:56.548Z,16.00
2023-04-15T10:45:27.993Z,16.60
2023-04-15T10:48:01.028Z,17.00
2023-04-15T10:50:32.630Z,18.60
2023-04-15T10:53:03.356Z,18.70
2023-04-15T10:55:35.368Z,18.70
2023-04-15T10:58:03.956Z,18.70
2023-04-15T11:00:35.311Z,17.80
2023-04-15T11:03:08.952Z,17.50
2023-04-15T11:05:53.505Z,17.90
2023-04-15T11:08:42.028Z,18.00
2023-04-15T11:11:11.391Z,17.90
2023-04-15T11:13:49.426Z,16.60
2023-04-15T11:16:17.804Z,16.50
2023-04-15T11:18:55.681Z,16.20
2023-04-15T11:21:27.037Z,16.40
2023-04-15T11:23:54.949Z,16.40
2023-04-15T11:26:27.711Z,16.30
2023-04-15T11:28:55.969Z,16.20
2023-04-15T11:31:24.221Z,15.70
2023-04-15T11:33:58.189Z,15.50
2023-04-15T11:36:28.221Z,15.10
2023-04-15T11:38:56.821Z,14.90
2023-04-15T11:41:26.372Z,14.70
2023-04-15T11:43:54.419Z,14.70
2023-04-15T11:46:23.051Z,14.80
2023-04-15T11:48:51.239Z,14.60
2023-04-15T11:51:21.779Z,14.70
2023-04-15T11:53:51.940Z,14.90
2023-04-15T11:56:21.419Z,15.10
2023-04-15T11:58:54.039Z,15.00
2023-04-15T12:01:22.410Z,14.80
2023-04-15T12:03:50.785Z,14.90
2023-04-15T12:06:20.395Z,14.70
2023-04-15T12:09:02.068Z,14.50
2023-04-15T12:11:35.333Z,14.60
2023-04-15T12:14:11.198Z,14.60
2023-04-15T12:16:48.891Z,14.50
2023-04-15T12:19:20.055Z,14.30
2023-04-15T12:21:49.131Z,14.20
2023-04-15T12:24:20.976Z,14.20
2023-04-15T12:26:50.510Z,14.20
2023-04-15T12:29:21.120Z,14.10
2023-04-15T12:31:53.648Z,14.20
2023-04-15T12:34:29.389Z,14.30
2023-04-15T12:36:58.169Z,14.10
2023-04-15T12:39:28.682Z,14.30
2023-04-15T12:42:01.866Z,14.20
2023-04-15T12:44:31.507Z,14.20
2023-04-15T12:47:00.172Z,14.20
2023-04-15T12:49:28.735Z,14.40
2023-04-15T12:51:57.918Z,14.30
2023-04-15T12:54:26.682Z,14.20
2023-04-15T12:56:55.511Z,14.10
2023-04-15T12:59:24.206Z,14.10
2023-04-15T13:01:54.615Z,14.00
2023-04-15T13:04:23.119Z,13.80
2023-04-15T13:06:51.399Z,13.70
2023-04-15T13:09:19.368Z,13.80
2023-04-15T13:11:47.370Z,13.70
2023-04-15T13:14:15.751Z,13.60
2023-04-15T13:16:43.705Z,13.80
2023-04-15T13:19:13.004Z,13.60
2023-04-15T13:21:40.985Z,13.60
2023-04-15T13:24:09.686Z,13.50
2023-04-15T13:26:37.919Z,13.40
2023-04-15T13:29:05.940Z,13.40
2023-04-15T13:31:33.996Z,13.10
2023-04-15T13:34:02.070Z,13.40
2023-04-15T13:36:31.475Z,13.50
2023-04-15T13:38:59.950Z,13.60
2023-04-15T13:41:27.928Z,13.70
2023-04-15T13:43:55.914Z,13.70
2023-04-15T13:46:23.897Z,13.50
2023-04-15T13:48:51.887Z,13.70
2023-04-15T13:51:19.920Z,13.70
2023-04-15T13:53:49.207Z,13.50
2023-04-15T13:56:17.254Z,13.60
2023-04-15T13:58:45.243Z,13.50
2023-04-15T14:01:13.289Z,13.60
2023-04-15T14:03:41.624Z,13.60
2023-04-15T14:06:09.795Z,13.80
2023-04-15T14:08:37.841Z,13.70
2023-04-15T14:11:07.857Z,13.70
2023-04-15T14:13:35.863Z,13.50
2023-04-15T14:16:03.895Z,13.40
2023-04-15T14:18:31.866Z,13.10
2023-04-15T14:20:59.907Z,12.90
2023-04-15T14:23:27.843Z,12.80
2023-04-15T14:25:56.056Z,12.90
2023-04-15T14:28:25.768Z,12.90
2023-04-15T14:30:53.818Z,12.70
2023-04-15T14:33:22.007Z,12.70
2023-04-15T14:35:51.945Z,12.80
2023-04-15T14:38:22.484Z,12.90
2023-04-15T14:40:50.609Z,13.10
2023-04-15T14:43:18.592Z,13.30
2023-04-15T14:45:48.035Z,13.50
2023-04-15T14:48:16.028Z,13.40
2023-04-15T14:50:43.983Z,13.30
2023-04-15T14:53:11.890Z,13.20
2023-04-15T14:55:39.900Z,13.00
2023-04-15T14:58:09.333Z,12.80
2023-04-15T15:00:39.240Z,12.70
2023-04-15T15:03:13.563Z,12.70
2023-04-15T15:05:42.190Z,12.70
2023-04-15T15:08:10.728Z,12.80
2023-04-15T15:10:48.524Z,12.90
2023-04-15T15:13:18.724Z,12.80
2023-04-15T15:15:49.093Z,12.90
2023-04-15T15:18:19.574Z,12.90
2023-04-15T15:20:47.871Z,12.90
2023-04-15T15:23:15.888Z,12.80
2023-04-15T15:25:44.278Z,12.70
2023-04-15T15:28:12.605Z,12.60
2023-04-15T15:30:40.643Z,12.50
2023-04-15T15:33:08.594Z,12.60
2023-04-15T15:35:37.987Z,12.70
2023-04-15T15:38:06.303Z,12.80
2023-04-15T15:40:34.409Z,12.80
2023-04-15T15:43:02.416Z,12.90
2023-04-15T15:45:30.759Z,13.00
2023-04-15T15:48:00.118Z,12.90
2023-04-15T15:50:28.258Z,13.00
2023-04-15T15:52:58.603Z,12.90
2023-04-15T15:55:27.222Z,12.90
2023-04-15T15:57:55.285Z,13.00
2023-04-15T16:00:23.681Z,13.00
2023-04-15T16:05:22.761Z,12.80
2023-04-15T16:07:50.813Z,12.80
2023-04-15T16:10:20.243Z,12.60
2023-04-15T16:12:48.275Z,12.60
2023-04-15T16:15:16.228Z,12.40
2023-04-15T16:17:44.267Z,12.40
2023-04-15T16:20:12.510Z,12.40
2023-04-15T16:22:40.701Z,12.30
2023-04-15T16:25:09.312Z,12.10
2023-04-15T16:30:11.484Z,11.90
2023-04-15T16:32:39.616Z,11.90
2023-04-15T16:35:08.470Z,11.90
2023-04-15T16:37:36.548Z,11.90
2023-04-15T16:40:05.063Z,11.90
2023-04-15T16:42:33.102Z,11.80
2023-04-15T16:45:02.428Z,11.70
2023-04-15T16:47:30.447Z,11.60
2023-04-15T16:49:58.431Z,11.60
2023-04-15T16:52:26.468Z,11.50
2023-04-15T16:54:54.403Z,11.40
2023-04-15T16:57:22.468Z,11.30
2023-04-15T16:59:52.832Z,11.30
2023-04-15T17:02:22.322Z,11.20
2023-04-15T17:04:50.484Z,11.10
2023-04-15T17:07:18.458Z,11.10
2023-04-15T17:09:46.449Z,11.00
2023-04-15T17:12:15.314Z,11.00
2023-04-15T17:14:43.338Z,11.00
2023-04-15T17:17:11.283Z,11.00
2023-04-15T17:19:40.636Z,10.90
2023-04-15T17:22:08.605Z,10.90
2023-04-15T17:24:36.966Z,10.90
2023-04-15T17:27:05.145Z,10.80
2023-04-15T17:29:33.928Z,10.80
2023-04-15T17:32:02.993Z,10.80
2023-04-15T17:34:49.951Z,10.60
2023-04-15T17:37:20.294Z,10.60
2023-04-15T17:39:48.273Z,10.60
2023-04-15T17:42:16.889Z,10.50
2023-04-15T17:44:44.901Z,10.50
2023-04-15T17:47:13.159Z,10.50
2023-04-15T17:49:41.095Z,10.50
2023-04-15T17:52:09.088Z,10.40
2023-04-15T17:54:38.479Z,10.40
2023-04-15T17:57:06.684Z,10.30
2023-04-15T17:59:34.738Z,10.20
2023-04-15T18:02:02.780Z,10.10
2023-04-15T18:04:31.152Z,10.10
2023-04-15T18:06:59.257Z,10.10
2023-04-15T18:09:28.301Z,10.10
2023-04-15T18:11:57.793Z,10.00
2023-04-15T18:14:34.262Z,10.00
2023-04-15T18:17:03.034Z,9.90
2023-04-15T18:19:31.677Z,9.90
2023-04-15T18:22:00.913Z,9.90
2023-04-15T18:24:29.262Z,9.70
2023-04-15T18:26:59.041Z,9.70
2023-04-15T18:29:27.123Z,9.70
2023-04-15T18:31:55.161Z,9.60
2023-04-15T18:34:23.142Z,9.60
2023-04-15T18:36:51.176Z,9.60
2023-04-15T18:39:19.158Z,9.60
2023-04-15T18:41:47.131Z,9.60
2023-04-15T18:44:16.440Z,9.50
2023-04-15T18:46:44.470Z,9.40
2023-04-15T18:49:13.527Z,9.40
2023-04-15T18:51:41.626Z,9.40
2023-04-15T18:54:09.539Z,9.50
2023-04-15T18:56:37.591Z,9.50
2023-04-15T18:59:23.054Z,9.50
2023-04-15T19:01:55.238Z,9.40
2023-04-15T19:04:23.223Z,9.40
2023-04-15T19:06:51.338Z,9.30
2023-04-15T19:09:19.403Z,9.30
2023-04-15T19:11:47.605Z,9.30
2023-04-15T19:14:15.705Z,9.20
2023-04-15T19:16:43.741Z,9.30
2023-04-15T19:19:14.509Z,9.30
2023-04-15T19:21:42.838Z,9.30
2023-04-15T19:24:11.333Z,9.30
2023-04-15T19:26:39.371Z,9.30
2023-04-15T19:29:07.485Z,9.20
2023-04-15T19:31:35.523Z,9.20
2023-04-15T19:34:03.506Z,9.20
2023-04-15T19:36:33.261Z,9.20
2023-04-15T19:39:01.808Z,9.30
2023-04-15T19:41:29.761Z,9.20
2023-04-15T19:43:57.767Z,9.20
2023-04-15T19:46:25.800Z,9.20
2023-04-15T19:48:54.093Z,9.20
2023-04-15T19:51:22.135Z,9.20
2023-04-15T19:53:53.865Z,9.20
2023-04-15T19:56:23.735Z,9.10
2023-04-15T19:58:52.967Z,9.10
2023-04-15T20:01:21.519Z,9.20
2023-04-15T20:03:49.943Z,9.10
2023-04-15T20:06:18.216Z,9.10
2023-04-15T20:08:46.151Z,9.10
2023-04-15T20:11:15.630Z,9.10
2023-04-15T20:13:43.622Z,9.00
2023-04-15T20:16:12.696Z,9.00
2023-04-15T20:18:41.307Z,9.00
2023-04-15T20:21:09.283Z,9.00
2023-04-15T20:23:38.214Z,9.00
2023-04-15T20:26:06.440Z,9.00
2023-04-15T20:28:35.782Z,9.00
2023-04-15T20:31:03.912Z,9.00
2023-04-15T20:33:31.889Z,9.00
2023-04-15T20:35:59.958Z,9.00
2023-04-15T20:38:27.898Z,8.90
2023-04-15T20:40:55.857Z,9.00
2023-04-15T20:43:25.567Z,8.90
2023-04-15T20:45:57.582Z,8.90
2023-04-15T20:48:26.754Z,8.90
2023-04-15T20:50:54.696Z,8.90
2023-04-15T20:53:22.632Z,8.80
2023-04-15T20:55:50.601Z,8.80
2023-04-15T20:58:18.562Z,8.70
2023-04-15T21:00:47.052Z,8.70
2023-04-15T21:03:16.627Z,8.70
2023-04-15T21:05:44.628Z,8.70
2023-04-15T21:08:12.805Z,8.70
2023-04-15T21:10:40.749Z,8.70
2023-04-15T21:13:08.871Z,8.70
2023-04-15T21:15:36.880Z,8.70
2023-04-15T21:18:04.927Z,8.70
2023-04-15T21:20:34.188Z,8.70
2023-04-15T21:23:02.136Z,8.70
2023-04-15T21:25:30.190Z,8.70
2023-04-15T21:27:58.129Z,8.70
2023-04-15T21:30:26.092Z,8.70
2023-04-15T21:32:55.636Z,8.70
2023-04-15T21:35:23.688Z,8.70
2023-04-15T21:37:52.971Z,8.70
2023-04-15T21:40:20.995Z,8.70
2023-04-15T21:42:49.758Z,8.70
2023-04-15T21:45:17.739Z,8.70
2023-04-15T21:48:04.947Z,8.70
2023-04-15T21:50:33.666Z,8.80
2023-04-15T21:53:03.001Z,8.80
2023-04-15T21:55:30.981Z,8.80
2023-04-15T21:57:58.975Z,8.80
2023-04-15T22:00:26.971Z,8.80
2023-04-15T22:02:55.048Z,8.80
2023-04-15T22:05:23.212Z,8.80
2023-04-15T22:07:51.158Z,8.70
2023-04-15T22:10:20.949Z,8.70
2023-04-15T22:12:48.920Z,8.80
2023-04-15T22:15:16.989Z,8.80
2023-04-15T22:17:45.013Z,8.70
2023-04-15T22:20:13.327Z,8.80
2023-04-15T22:22:43.384Z,8.80
2023-04-15T22:25:12.736Z,8.80
2023-04-15T22:27:42.168Z,8.80
2023-04-15T22:30:11.539Z,8.80
2023-04-15T22:32:39.799Z,8.80
2023-04-15T22:35:08.353Z,8.80
2023-04-15T22:37:36.270Z,8.80
2023-04-15T22:40:04.636Z,8.70
2023-04-15T22:42:32.566Z,8.70
2023-04-15T22:45:04.175Z,8.70
2023-04-15T22:47:32.180Z,8.80
2023-04-15T22:50:00.322Z,8.80
2023-04-15T22:52:31.047Z,8.70
2023-04-15T22:54:59.644Z,8.80
2023-04-15T22:57:27.919Z,8.70
2023-04-15T22:59:56.283Z,8.80
2023-04-15T23:02:25.888Z,8.80
2023-04-15T23:04:53.994Z,8.80
2023-04-15T23:07:22.082Z,8.80
2023-04-15T23:09:50.019Z,8.80
2023-04-15T23:12:17.975Z,8.80
2023-04-15T23:14:45.976Z,8.70
2023-04-15T23:17:15.255Z,8.70
2023-04-15T23:19:44.631Z,8.70
2023-04-15T23:22:12.643Z,8.70
2023-04-15T23:24:40.664Z,8.70
2023-04-15T23:27:08.636Z,8.70
2023-04-15T23:29:36.999Z,8.70
2023-04-15T23:32:05.130Z,8.70
2023-04-15T23:34:33.081Z,8.70
2023-04-15T23:37:02.434Z,8.70
2023-04-15T23:39:31.098Z,8.70
2023-04-15T23:41:59.085Z,8.70
2023-04-15T23:44:27.071Z,8.70
2023-04-15T23:46:55.121Z,8.70
2023-04-15T23:49:24.021Z,8.80
2023-04-15T23:51:52.021Z,8.70
2023-04-15T23:54:21.343Z,8.70
2023-04-15T23:56:49.379Z,8.70
2023-04-15T23:59:17.320Z,8.70
